Time;durP1;ratioP1;P1;durP2;ratioP2;P2;SDS_P1;SDS_P2;PMS_P1;PMS_P2;Temp;Humidity;BMP_temperature;BMP_pressure;BME280_temperature;BME280_humidity;BME280_pressure;Samples;Min_cycle;Max_cycle;Signal;HPM_P1;HPM_P2
2023/05/02 00:01:06;;;;;;;18.02;14.52;;;;;;;21.18;74.76;98477.84;4744922;30;20068;-52
2023/05/02 00:03:35;;;;;;;20.63;14.95;;;;;;;21.15;74.54;98475.69;4746630;30;20070;-50
2023/05/02 00:06:05;;;;;;;18.05;14.65;;;;;;;21.12;74.43;98477.00;4756724;29;20052;-50
2023/05/02 00:08:34;;;;;;;17.83;14.90;;;;;;;21.14;74.68;98485.66;4762446;30;20044;-53
2023/05/02 00:11:04;;;;;;;19.65;15.30;;;;;;;21.14;74.63;98490.22;4761623;30;20070;-52
2023/05/02 00:13:33;;;;;;;17.50;15.20;;;;;;;21.14;74.63;98487.53;4761745;30;20059;-51
2023/05/02 00:16:03;;;;;;;17.17;15.13;;;;;;;21.12;74.70;98484.25;4746634;30;20071;-53
2023/05/02 00:18:33;;;;;;;20.90;15.15;;;;;;;21.13;74.85;98489.41;4750381;30;20063;-57
2023/05/02 00:21:02;;;;;;;21.23;15.40;;;;;;;21.14;74.96;98488.34;4761874;30;20059;-57
2023/05/02 00:23:31;;;;;;;22.17;16.40;;;;;;;21.15;74.61;98491.84;4761314;30;20063;-52
2023/05/02 00:26:01;;;;;;;23.23;16.70;;;;;;;21.16;74.75;98494.25;4746842;30;20651;-53
2023/05/02 00:28:30;;;;;;;18.20;16.17;;;;;;;21.11;74.91;98493.44;4746169;30;20140;-51
2023/05/02 00:31:01;;;;;;;19.23;17.08;;;;;;;21.14;74.94;98495.63;4756848;30;20130;-50
2023/05/02 00:33:30;;;;;;;22.13;17.38;;;;;;;21.15;74.52;98492.66;4742577;30;20059;-54
2023/05/02 00:36:00;;;;;;;22.20;17.75;;;;;;;21.11;74.53;98496.13;4756339;30;20139;-49
2023/05/02 00:38:29;;;;;;;19.55;17.15;;;;;;;21.14;75.06;98495.63;4746940;30;20079;-51
2023/05/02 00:40:58;;;;;;;22.50;18.60;;;;;;;21.19;74.73;98504.53;4761386;30;20091;-51
2023/05/02 00:43:30;;;;;;;23.40;16.83;;;;;;;21.21;74.71;98501.53;4743002;30;20139;-56
2023/05/02 00:45:59;;;;;;;24.52;18.15;;;;;;;21.22;74.63;98503.97;4740224;30;20156;-54
2023/05/02 00:48:29;;;;;;;29.08;18.48;;;;;;;21.22;74.61;98498.59;4743668;29;20052;-53
2023/05/02 00:51:01;;;;;;;23.95;18.35;;;;;;;21.21;74.69;98504.25;4743243;30;20129;-49
2023/05/02 00:53:32;;;;;;;22.35;18.17;;;;;;;21.25;74.62;98497.25;4751406;30;20060;-53
2023/05/02 00:56:02;;;;;;;22.17;18.52;;;;;;;21.22;74.49;98501.28;4759791;30;20044;-54
2023/05/02 00:58:33;;;;;;;26.38;19.42;;;;;;;21.35;74.50;98505.34;4760929;30;20738;-54
2023/05/02 01:01:17;;;;;;;26.63;18.77;;;;;;;21.41;74.26;98507.81;4760518;30;20055;-51
2023/05/02 01:04:21;;;;;;;23.65;18.60;;;;;;;21.49;74.19;98511.84;4744160;30;20409;-52
2023/05/02 01:07:10;;;;;;;23.85;18.40;;;;;;;21.51;74.14;98515.88;4725755;30;20147;-47
2023/05/02 01:09:39;;;;;;;24.63;19.20;;;;;;;21.60;73.72;98507.28;4739884;30;20083;-51
2023/05/02 01:13:01;;;;;;;24.10;18.83;;;;;;;21.64;73.63;98513.75;4748796;30;20662;-49
2023/05/02 01:15:33;;;;;;;26.55;19.45;;;;;;;21.71;73.72;98522.38;4747083;30;20150;-49
2023/05/02 01:18:05;;;;;;;26.00;20.63;;;;;;;21.62;73.36;98514.03;4742962;29;20084;-53
2023/05/02 01:20:40;;;;;;;26.80;19.85;;;;;;;21.75;73.54;98520.75;4743088;30;20401;-48
2023/05/02 01:23:22;;;;;;;25.23;18.67;;;;;;;21.82;73.45;98530.19;4754919;30;20078;-52
2023/05/02 01:26:23;;;;;;;24.00;19.27;;;;;;;21.80;73.26;98528.84;4741695;30;20071;-48
2023/05/02 01:28:53;;;;;;;24.83;19.20;;;;;;;21.87;72.99;98540.16;4742050;30;20067;-49
2023/05/02 01:31:28;;;;;;;23.77;19.08;;;;;;;21.91;72.82;98546.66;4743109;29;20053;-52
2023/05/02 01:34:00;;;;;;;23.02;18.63;;;;;;;21.97;72.81;98544.78;4757012;30;20187;-54
2023/05/02 01:36:31;;;;;;;26.88;20.13;;;;;;;22.06;72.63;98557.47;4751235;30;20438;-47
2023/05/02 01:39:03;;;;;;;22.75;18.85;;;;;;;22.13;72.15;98557.22;4743459;30;20155;-48
2023/05/02 01:41:35;;;;;;;26.30;19.05;;;;;;;22.15;72.26;98561.25;4753799;30;20064;-57
2023/05/02 01:44:07;;;;;;;23.90;19.63;;;;;;;22.10;72.38;98565.84;4735001;30;20059;-51
2023/05/02 01:46:41;;;;;;;21.30;17.30;;;;;;;22.16;72.24;98573.66;4753994;30;20463;-49
2023/05/02 01:49:11;;;;;;;25.58;18.83;;;;;;;22.20;72.17;98568.53;4745942;30;20052;-52
2023/05/02 01:51:48;;;;;;;21.95;18.15;;;;;;;22.22;72.28;98566.34;4749633;30;20050;-47
2023/05/02 01:54:19;;;;;;;22.67;18.00;;;;;;;22.26;72.27;98579.03;4752224;30;20044;-55
2023/05/02 01:56:51;;;;;;;29.73;16.90;;;;;;;22.38;71.95;98576.88;4750925;30;20188;-54
2023/05/02 01:59:23;;;;;;;21.10;17.40;;;;;;;22.51;71.64;98582.81;4731288;30;20048;-52
2023/05/02 02:01:55;;;;;;;20.43;17.13;;;;;;;22.53;71.53;98581.44;4749880;30;20525;-48
2023/05/02 02:04:25;;;;;;;20.13;17.98;;;;;;;22.58;71.46;98586.00;4755325;29;20083;-50
2023/05/02 02:07:12;;;;;;;20.52;18.05;;;;;;;22.70;71.28;98600.09;4757958;30;20811;-49
2023/05/02 02:09:41;;;;;;;20.75;18.10;;;;;;;22.90;70.53;98602.72;4745410;30;20056;-52
2023/05/02 02:12:16;;;;;;;19.23;16.52;;;;;;;23.22;69.73;98605.84;4751065;30;20146;-51
2023/05/02 02:14:52;;;;;;;21.65;17.27;;;;;;;23.70;68.63;98620.50;4754560;30;20155;-51
2023/05/02 02:17:26;;;;;;;21.92;17.15;;;;;;;24.53;66.19;98612.31;4744726;30;20133;-54
2023/05/02 02:20:00;;;;;;;21.65;16.17;;;;;;;24.99;63.82;98615.41;4762164;30;20076;-49
2023/05/02 02:22:36;;;;;;;17.88;15.80;;;;;;;25.22;63.02;98613.00;4759193;30;20080;-50
2023/05/02 02:25:09;;;;;;;18.40;16.38;;;;;;;25.32;62.70;98620.97;4751132;30;20052;-53
2023/05/02 02:27:40;;;;;;;22.88;15.18;;;;;;;25.74;61.25;98623.72;4747350;30;20051;-52
2023/05/02 02:30:10;;;;;;;18.83;14.88;;;;;;;26.17;60.17;98623.59;4761847;30;20384;-53
2023/05/02 02:32:39;;;;;;;19.33;15.15;;;;;;;26.33;59.62;98639.38;4753842;30;20394;-50
2023/05/02 02:35:10;;;;;;;19.52;14.50;;;;;;;26.36;59.20;98633.38;4756205;30;20440;-48
2023/05/02 02:38:18;;;;;;;17.33;14.75;;;;;;;26.28;59.02;98644.13;4754166;30;20559;-53
2023/05/02 02:41:00;;;;;;;17.13;14.48;;;;;;;26.13;59.33;98645.13;4738821;30;20125;-52
2023/05/02 02:44:00;;;;;;;21.45;14.77;;;;;;;26.14;59.29;98651.34;4759821;30;20075;-50
2023/05/02 02:47:03;;;;;;;18.30;13.95;;;;;;;26.44;58.66;98660.97;4744717;30;20091;-52
2023/05/02 02:49:59;;;;;;;18.77;14.05;;;;;;;26.28;58.86;98669.38;4762661;30;20056;-56
2023/05/02 02:52:45;;;;;;;18.48;14.55;;;;;;;25.86;59.76;98672.94;4738909;30;20469;-49
2023/05/02 02:55:25;;;;;;;16.42;13.52;;;;;;;25.80;59.80;98673.31;4744968;30;20075;-49
2023/05/02 02:58:03;;;;;;;17.02;14.00;;;;;;;25.47;60.33;98675.84;4745054;30;20437;-51
2023/05/02 03:00:34;;;;;;;20.15;13.27;;;;;;;25.21;61.18;98682.66;4727781;30;20060;-55
2023/05/02 03:03:07;;;;;;;16.65;12.70;;;;;;;25.14;61.43;98684.09;4755868;30;20668;-50
2023/05/02 03:05:37;;;;;;;17.52;14.68;;;;;;;24.82;60.49;98692.78;4745552;30;20063;-49
2023/05/02 03:08:06;;;;;;;16.08;13.07;;;;;;;24.50;62.58;98690.63;4744504;29;20056;-49
2023/05/02 03:10:35;;;;;;;15.00;12.90;;;;;;;24.54;62.85;98695.19;4745659;29;20064;-53
2023/05/02 03:13:05;;;;;;;15.00;11.95;;;;;;;24.60;62.65;98694.06;4756752;30;20127;-50
2023/05/02 03:16:06;;;;;;;15.77;11.63;;;;;;;24.80;61.70;98701.19;4749183;30;20060;-52
2023/05/02 03:18:36;;;;;;;15.27;13.35;;;;;;;24.88;61.91;98697.91;4744670;30;20094;-49
2023/05/02 03:21:05;;;;;;;17.27;12.27;;;;;;;24.87;61.08;98701.69;4745299;30;20060;-53
2023/05/02 03:23:35;;;;;;;15.00;11.65;;;;;;;24.90;61.40;98693.00;4744599;30;20068;-53
2023/05/02 03:26:05;;;;;;;13.95;10.60;;;;;;;25.23;60.79;98695.91;4746813;30;20066;-49
2023/05/02 03:28:35;;;;;;;12.95;10.50;;;;;;;25.46;59.82;98700.53;4729810;30;20063;-53
2023/05/02 03:31:05;;;;;;;12.18;10.27;;;;;;;25.40;58.85;98701.72;4725893;30;20052;-52
2023/05/02 03:33:38;;;;;;;10.75;9.63;;;;;;;25.44;59.48;98697.31;4745369;30;20056;-53
2023/05/02 03:36:08;;;;;;;10.90;8.63;;;;;;;25.21;59.05;98703.53;4760661;30;20060;-50
2023/05/02 03:38:39;;;;;;;11.75;9.27;;;;;;;25.34;58.53;98705.56;4744531;30;20652;-55
2023/05/02 03:41:11;;;;;;;12.02;8.15;;;;;;;25.20;58.05;98704.63;4741612;30;20056;-54
2023/05/02 03:43:41;;;;;;;8.20;7.35;;;;;;;25.31;57.81;98706.97;4746031;30;20503;-51
2023/05/02 03:46:11;;;;;;;9.13;8.20;;;;;;;25.42;57.42;98704.94;4760804;30;20544;-53
2023/05/02 03:48:45;;;;;;;10.73;9.15;;;;;;;25.52;58.38;98718.38;4762273;30;20055;-51
2023/05/02 03:51:14;;;;;;;12.00;8.90;;;;;;;25.48;58.31;98718.16;4760766;30;20056;-55
2023/05/02 03:53:48;;;;;;;8.57;7.68;;;;;;;25.26;56.43;98715.16;4748721;30;20067;-56
2023/05/02 03:56:22;;;;;;;8.05;6.97;;;;;;;25.10;57.33;98718.28;4753388;30;20063;-53
2023/05/02 03:59:02;;;;;;;8.45;7.40;;;;;;;25.04;58.08;98721.06;4762952;30;20059;-54
2023/05/02 04:01:32;;;;;;;9.70;8.35;;;;;;;25.05;58.38;98722.66;4754127;30;20062;-53
2023/05/02 04:04:02;;;;;;;9.98;8.50;;;;;;;25.08;58.87;98721.28;4757666;29;20048;-55
2023/05/02 04:06:37;;;;;;;11.05;9.13;;;;;;;24.97;59.02;98720.56;4761444;30;20488;-50
2023/05/02 04:09:09;;;;;;;13.05;9.15;;;;;;;24.93;58.65;98726.84;4742358;29;20052;-50
2023/05/02 04:11:46;;;;;;;11.63;8.43;;;;;;;24.84;59.43;98723.09;4745098;30;20094;-51
2023/05/02 04:14:17;;;;;;;9.32;8.10;;;;;;;24.77;59.26;98726.16;4745168;30;20497;-52
2023/05/02 04:16:49;;;;;;;10.05;9.00;;;;;;;24.63;59.30;98727.91;4742670;30;20056;-54
2023/05/02 04:19:26;;;;;;;9.88;8.80;;;;;;;24.51;59.88;98728.25;4741096;30;20048;-50
2023/05/02 04:21:55;;;;;;;14.95;9.93;;;;;;;24.60;61.43;98725.75;4742729;30;20085;-50
2023/05/02 04:24:25;;;;;;;14.05;10.38;;;;;;;24.59;61.60;98730.38;4746466;30;20056;-53
2023/05/02 04:26:54;;;;;;;11.35;10.05;;;;;;;24.52;61.83;98739.88;4753600;29;20055;-51
2023/05/02 04:29:25;;;;;;;12.00;9.88;;;;;;;24.44;62.52;98727.75;4731692;30;20555;-52
2023/05/02 04:31:55;;;;;;;13.98;10.18;;;;;;;24.40;63.03;98725.88;4750288;30;20055;-56
2023/05/02 04:34:27;;;;;;;16.90;10.55;;;;;;;24.34;62.74;98727.03;4751206;29;20435;-57
2023/05/02 04:36:56;;;;;;;11.98;10.40;;;;;;;24.28;63.27;98730.84;4755752;29;20055;-54
2023/05/02 04:39:26;;;;;;;16.05;11.02;;;;;;;24.28;63.53;98733.56;4750202;29;20064;-56
2023/05/02 04:42:05;;;;;;;15.82;10.85;;;;;;;24.26;63.38;98730.31;4752227;29;20060;-60
2023/05/02 04:44:42;;;;;;;19.27;10.32;;;;;;;24.23;63.09;98729.00;4751666;29;20052;-57
2023/05/02 04:47:11;;;;;;;12.60;10.52;;;;;;;24.23;63.21;98741.72;4751156;29;20560;-58
2023/05/02 04:49:41;;;;;;;14.10;10.40;;;;;;;24.22;63.93;98740.09;4749504;29;20066;-57
2023/05/02 04:52:11;;;;;;;13.57;10.93;;;;;;;24.16;63.96;98742.81;4748094;29;20060;-57
2023/05/02 04:54:41;;;;;;;12.38;10.85;;;;;;;24.12;63.75;98743.63;4749817;30;20056;-57
2023/05/02 04:57:10;;;;;;;12.63;11.23;;;;;;;24.06;64.52;98740.16;4741854;29;20056;-58
2023/05/02 04:59:45;;;;;;;15.23;10.48;;;;;;;24.05;64.39;98748.53;4749077;30;20055;-57
2023/05/02 05:02:14;;;;;;;17.85;11.35;;;;;;;24.06;64.90;98750.97;4745435;30;20048;-60
2023/05/02 05:04:44;;;;;;;15.65;10.77;;;;;;;24.10;65.07;98749.34;4749627;30;20396;-57
2023/05/02 05:07:15;;;;;;;14.07;11.50;;;;;;;24.14;65.58;98738.75;4749917;29;20068;-58
2023/05/02 05:09:47;;;;;;;12.88;10.82;;;;;;;24.21;64.91;98741.19;4750259;30;20823;-60
2023/05/02 05:12:21;;;;;;;14.35;11.15;;;;;;;24.24;65.18;98730.63;4757550;29;20048;-58
2023/05/02 05:14:51;;;;;;;12.55;10.60;;;;;;;24.33;64.13;98733.53;4750964;29;20524;-58
2023/05/02 05:17:24;;;;;;;12.57;10.63;;;;;;;24.34;63.29;98730.53;4742654;29;20732;-54
2023/05/02 05:19:55;;;;;;;13.20;10.52;;;;;;;24.41;63.17;98736.44;4761610;29;20064;-59
2023/05/02 05:22:25;;;;;;;12.55;10.57;;;;;;;24.50;63.32;98726.63;4764019;29;20141;-57
2023/05/02 05:24:55;;;;;;;11.60;10.40;;;;;;;24.47;63.02;98716.34;4755448;29;20056;-56
2023/05/02 05:27:29;;;;;;;12.98;10.27;;;;;;;24.59;62.46;98718.72;4763899;30;20066;-60
2023/05/02 05:29:59;;;;;;;14.68;10.50;;;;;;;24.70;61.18;98719.44;4753571;30;20056;-56
2023/05/02 05:32:32;;;;;;;12.63;9.88;;;;;;;24.81;61.29;98723.69;4744008;30;20501;-55
2023/05/02 05:35:03;;;;;;;13.52;10.68;;;;;;;24.87;61.71;98717.94;4758512;30;20089;-55
2023/05/02 05:37:33;;;;;;;14.25;10.48;;;;;;;25.03;61.95;98705.88;4761016;30;20488;-58
2023/05/02 05:40:07;;;;;;;12.77;11.38;;;;;;;25.15;62.00;98705.50;4754291;30;20056;-52
2023/05/02 05:42:38;;;;;;;18.35;10.60;;;;;;;25.20;61.60;98702.72;4751258;30;20810;-59
2023/05/02 05:45:15;;;;;;;12.68;11.02;;;;;;;25.26;61.47;98714.34;4752740;30;20052;-59
2023/05/02 05:47:45;;;;;;;14.20;11.48;;;;;;;25.30;59.75;98712.66;4762300;30;20056;-60
2023/05/02 05:50:15;;;;;;;15.60;11.40;;;;;;;25.34;59.32;98697.44;4752838;30;20056;-59
2023/05/02 05:52:46;;;;;;;15.35;11.65;;;;;;;25.37;59.95;98694.13;4748410;30;20060;-58
2023/05/02 05:55:15;;;;;;;15.75;11.68;;;;;;;25.37;58.61;98691.41;4726022;30;20053;-59
2023/05/02 05:57:45;;;;;;;14.38;11.40;;;;;;;25.49;59.35;98697.28;4741776;30;20053;-59
2023/05/02 06:00:14;;;;;;;15.93;11.93;;;;;;;25.54;59.35;98699.91;4754080;30;20062;-60
2023/05/02 06:02:48;;;;;;;14.70;12.25;;;;;;;25.60;60.88;98693.34;4759137;30;20086;-60
2023/05/02 06:05:27;;;;;;;16.27;13.18;;;;;;;25.72;61.22;98701.88;4763137;30;20654;-59
2023/05/02 06:07:58;;;;;;;16.98;14.35;;;;;;;25.59;61.93;98701.78;4763474;30;20093;-59
2023/05/02 06:10:27;;;;;;;17.98;13.38;;;;;;;25.48;61.79;98703.78;4751765;30;20060;-58
2023/05/02 06:12:57;;;;;;;16.70;12.90;;;;;;;25.45;61.99;98705.16;4756175;30;20065;-59
2023/05/02 06:15:34;;;;;;;15.40;12.38;;;;;;;25.43;60.98;98693.81;4751815;30;20406;-59
2023/05/02 06:18:05;;;;;;;15.60;13.93;;;;;;;25.49;61.16;98694.56;4749405;30;20094;-59
2023/05/02 06:20:36;;;;;;;16.65;14.07;;;;;;;25.39;60.21;98684.63;4752101;30;20064;-59
2023/05/02 06:23:05;;;;;;;17.30;14.10;;;;;;;25.55;61.38;98679.84;4748604;30;20056;-59
2023/05/02 06:25:37;;;;;;;16.75;14.95;;;;;;;25.70;60.15;98679.66;4755867;30;20063;-59
2023/05/02 06:28:08;;;;;;;17.70;15.80;;;;;;;26.06;59.35;98668.31;4764005;30;20056;-60
2023/05/02 06:30:40;;;;;;;18.35;16.05;;;;;;;26.17;59.06;98667.03;4752619;30;20066;-58
2023/05/02 06:33:11;;;;;;;16.88;15.07;;;;;;;26.41;58.53;98667.81;4753478;30;20785;-59
2023/05/02 06:35:40;;;;;;;17.75;14.80;;;;;;;26.52;57.40;98666.50;4752589;30;20052;-59
2023/05/02 06:38:09;;;;;;;19.17;14.63;;;;;;;26.78;57.56;98656.81;4746589;30;20075;-57
2023/05/02 06:40:44;;;;;;;16.45;14.60;;;;;;;26.82;58.59;98648.88;4758536;30;20490;-59
2023/05/02 06:43:14;;;;;;;17.02;14.57;;;;;;;27.09;57.87;98650.84;4759761;30;20056;-58
2023/05/02 06:45:44;;;;;;;16.73;14.32;;;;;;;27.08;57.59;98649.25;4751265;30;20074;-59
2023/05/02 06:48:14;;;;;;;18.98;14.40;;;;;;;26.95;54.03;98647.34;4748328;29;20429;-58
2023/05/02 06:50:43;;;;;;;21.35;14.48;;;;;;;26.74;57.04;98644.13;4758604;29;20166;-59
2023/05/02 06:53:12;;;;;;;20.52;14.25;;;;;;;26.53;57.40;98637.44;4753082;30;20056;-59
2023/05/02 06:55:44;;;;;;;14.55;13.05;;;;;;;26.43;57.55;98627.56;4755328;29;20059;-55
2023/05/02 06:58:14;;;;;;;16.10;14.05;;;;;;;26.49;57.73;98629.09;4730788;29;20075;-51
2023/05/02 07:00:43;;;;;;;18.65;13.13;;;;;;;26.58;57.44;98608.28;4750664;30;20052;-52
2023/05/02 07:03:14;;;;;;;14.95;13.02;;;;;;;26.52;56.94;98614.09;4753739;29;20067;-54
2023/05/02 07:05:43;;;;;;;16.55;12.75;;;;;;;26.38;57.89;98605.13;4761835;30;20147;-56
2023/05/02 07:08:13;;;;;;;14.27;12.63;;;;;;;26.34;57.93;98602.19;4731229;30;20068;-49
2023/05/02 07:10:42;;;;;;;14.02;11.98;;;;;;;26.30;57.07;98601.16;4759150;29;20067;-55
2023/05/02 07:13:11;;;;;;;15.45;12.38;;;;;;;26.22;58.50;98599.13;4754326;30;20059;-59
2023/05/02 07:15:40;;;;;;;16.52;12.75;;;;;;;26.21;58.72;98605.66;4750672;30;20059;-59
2023/05/02 07:18:10;;;;;;;18.42;13.73;;;;;;;26.33;59.30;98609.50;4745706;30;20636;-58
2023/05/02 07:20:41;;;;;;;21.45;13.55;;;;;;;26.27;59.27;98601.75;4757327;30;20511;-60
2023/05/02 07:23:11;;;;;;;16.27;12.52;;;;;;;26.20;57.24;98612.19;4762422;29;20062;-59
2023/05/02 07:25:40;;;;;;;15.30;12.45;;;;;;;26.10;57.70;98605.00;4763772;29;20062;-58
2023/05/02 07:28:10;;;;;;;15.93;11.80;;;;;;;26.10;58.58;98602.28;4754326;29;20118;-59
2023/05/02 07:30:39;;;;;;;15.40;11.32;;;;;;;25.99;59.18;98595.38;4756733;29;20448;-58
2023/05/02 07:33:09;;;;;;;12.07;10.80;;;;;;;25.83;59.10;98597.53;4756255;29;20059;-57
2023/05/02 07:35:38;;;;;;;11.70;10.50;;;;;;;25.81;58.96;98597.00;4756256;30;20056;-58
2023/05/02 07:38:07;;;;;;;13.65;10.70;;;;;;;25.73;59.42;98581.41;4755372;29;20066;-57
2023/05/02 07:40:37;;;;;;;11.18;9.95;;;;;;;25.68;59.79;98595.03;4756609;29;20676;-61
2023/05/02 07:43:06;;;;;;;11.82;10.50;;;;;;;25.61;60.11;98583.75;4753865;29;20414;-60
2023/05/02 07:45:38;;;;;;;13.35;9.48;;;;;;;25.59;56.75;98572.38;4753900;29;20063;-61
2023/05/02 07:48:07;;;;;;;11.88;9.68;;;;;;;25.74;56.89;98577.59;4744891;29;20456;-58
2023/05/02 07:50:36;;;;;;;12.48;9.35;;;;;;;25.99;57.38;98575.56;4754444;30;20059;-61
2023/05/02 07:53:06;;;;;;;18.95;9.68;;;;;;;26.25;56.68;98574.09;4739318;30;20430;-64
2023/05/02 07:55:36;;;;;;;11.52;9.63;;;;;;;26.12;53.82;98572.09;4754151;29;20064;-61
2023/05/02 07:58:05;;;;;;;10.80;9.15;;;;;;;26.38;54.93;98559.72;4757412;29;20057;-61
2023/05/02 08:00:35;;;;;;;14.25;8.98;;;;;;;26.48;53.55;98565.00;4756803;29;20373;-61
2023/05/02 08:03:05;;;;;;;9.18;8.18;;;;;;;26.74;53.78;98557.16;4753014;29;20474;-60
2023/05/02 08:05:35;;;;;;;10.50;8.02;;;;;;;26.65;53.55;98558.97;4749332;29;20598;-61
2023/05/02 08:08:05;;;;;;;11.07;8.45;;;;;;;26.81;53.20;98550.25;4754004;29;20063;-60
2023/05/02 08:10:34;;;;;;;12.77;8.25;;;;;;;26.91;53.23;98546.53;4755877;29;20051;-60
2023/05/02 08:13:04;;;;;;;10.63;8.60;;;;;;;26.91;52.35;98545.75;4752159;29;20051;-60
2023/05/02 08:15:33;;;;;;;11.00;7.97;;;;;;;26.56;53.20;98541.75;4755862;29;20150;-61
2023/05/02 08:18:03;;;;;;;9.00;7.60;;;;;;;26.57;53.44;98541.47;4753737;29;20396;-62
2023/05/02 08:20:32;;;;;;;11.43;8.50;;;;;;;26.56;54.65;98526.25;4757838;29;20047;-62
2023/05/02 08:23:02;;;;;;;14.80;7.50;;;;;;;26.55;55.10;98527.41;4753694;29;20152;-61
2023/05/02 08:25:31;;;;;;;10.93;7.20;;;;;;;26.43;55.23;98526.25;4753355;30;20158;-60
2023/05/02 08:28:00;;;;;;;7.60;6.78;;;;;;;26.28;56.16;98521.91;4753062;29;20119;-60
2023/05/02 08:30:30;;;;;;;8.90;6.43;;;;;;;26.09;55.11;98521.94;4758921;29;20366;-61
2023/05/02 08:33:02;;;;;;;8.73;7.07;;;;;;;25.86;55.49;98520.97;4755245;29;20059;-63
2023/05/02 08:35:32;;;;;;;8.38;7.47;;;;;;;25.78;55.95;98516.22;4755842;29;20051;-61
2023/05/02 08:38:02;;;;;;;10.73;6.75;;;;;;;25.89;57.08;98512.22;4753542;29;20500;-61
2023/05/02 08:40:35;;;;;;;10.25;6.88;;;;;;;25.90;56.45;98519.25;4760793;29;20140;-60
2023/05/02 08:43:15;;;;;;;11.02;7.38;;;;;;;25.73;57.28;98513.56;4753750;30;20141;-61
2023/05/02 08:45:45;;;;;;;9.45;8.15;;;;;;;25.72;59.15;98509.25;4749852;30;20089;-61
2023/05/02 08:48:17;;;;;;;14.25;9.15;;;;;;;25.65;59.12;98511.53;4747858;29;20052;-61
2023/05/02 08:50:48;;;;;;;11.20;8.48;;;;;;;25.61;60.07;98512.41;4753731;30;20052;-63
2023/05/02 08:53:18;;;;;;;16.15;9.15;;;;;;;25.38;61.17;98500.53;4754164;29;20105;-63
2023/05/02 08:55:48;;;;;;;10.10;8.80;;;;;;;25.42;61.00;98494.22;4752176;30;20056;-62
2023/05/02 08:58:18;;;;;;;10.27;9.20;;;;;;;25.52;61.48;98482.41;4749207;29;20063;-63
2023/05/02 09:00:50;;;;;;;12.98;9.30;;;;;;;25.50;60.32;98479.97;4754128;29;20161;-62
2023/05/02 09:03:30;;;;;;;12.70;9.63;;;;;;;25.53;60.56;98470.47;4754239;29;20092;-62
2023/05/02 09:06:05;;;;;;;12.00;10.05;;;;;;;25.44;60.29;98466.81;4749711;29;20528;-61
2023/05/02 09:08:36;;;;;;;15.70;10.95;;;;;;;25.38;60.97;98474.22;4752768;30;20142;-60
2023/05/02 09:11:08;;;;;;;13.35;11.05;;;;;;;25.29;61.68;98458.91;4754248;29;20047;-61
2023/05/02 09:13:42;;;;;;;16.80;11.02;;;;;;;25.25;58.44;98455.16;4755893;29;20051;-59
2023/05/02 09:16:16;;;;;;;11.68;10.30;;;;;;;25.21;60.11;98454.16;4756772;29;20078;-61
2023/05/02 09:18:48;;;;;;;12.52;10.50;;;;;;;25.25;60.53;98447.84;4752870;29;20528;-60
2023/05/02 09:21:19;;;;;;;14.48;10.73;;;;;;;25.19;59.54;98435.44;4750855;29;20146;-62
2023/05/02 09:23:52;;;;;;;21.08;12.07;;;;;;;25.18;62.66;98436.53;4760249;29;20079;-61
2023/05/02 09:26:22;;;;;;;15.98;12.57;;;;;;;24.98;65.90;98439.56;4758374;29;20153;-60
2023/05/02 09:28:55;;;;;;;15.07;12.55;;;;;;;24.90;68.31;98432.91;4761871;29;20060;-63
2023/05/02 09:31:36;;;;;;;20.42;12.98;;;;;;;24.77;70.31;98439.00;4750083;30;20062;-63
2023/05/02 09:34:23;;;;;;;16.38;12.38;;;;;;;24.58;70.49;98446.28;4758985;30;20105;-59
2023/05/02 09:36:55;;;;;;;23.45;14.15;;;;;;;24.44;69.90;98439.94;4726359;30;20060;-60
2023/05/02 09:39:27;;;;;;;19.17;13.35;;;;;;;24.35;71.05;98439.78;4753337;30;20047;-61
2023/05/02 09:41:57;;;;;;;;;;;;;;;24.30;72.85;98441.72;4758743;30;20428;-61
2023/05/02 09:44:36;;;;;;;16.25;13.60;;;;;;;24.23;74.27;98438.56;4759881;30;19937;-62
2023/05/02 09:47:07;;;;;;;17.85;14.07;;;;;;;24.08;77.58;98437.59;4743053;29;20746;-61
2023/05/02 09:49:45;;;;;;;23.42;16.02;;;;;;;23.86;79.12;98434.56;4760007;30;20151;-61
2023/05/02 09:52:16;;;;;;;19.90;15.65;;;;;;;23.64;79.50;98443.16;4744753;30;20163;-61
2023/05/02 09:54:46;;;;;;;23.02;16.65;;;;;;;23.65;81.28;98435.84;4745955;29;20056;-61
2023/05/02 09:57:15;;;;;;;24.05;19.00;;;;;;;23.61;82.37;98442.91;4428546;29;10000554;-62
2023/05/02 09:59:57;;;;;;;28.52;19.90;;;;;;;23.50;83.16;98447.59;4758065;30;20060;-62
2023/05/02 10:02:31;;;;;;;32.25;19.52;;;;;;;23.48;83.10;98443.56;4745154;30;20507;-63
2023/05/02 10:05:03;;;;;;;29.95;19.02;;;;;;;23.29;82.36;98435.28;4762576;29;20066;-62
2023/05/02 10:07:33;;;;;;;30.92;19.65;;;;;;;23.20;84.12;98445.88;4763840;30;20068;-62
2023/05/02 10:10:03;;;;;;;26.27;20.75;;;;;;;23.16;84.29;98438.63;4749582;30;20056;-62
2023/05/02 10:12:33;;;;;;;27.88;20.55;;;;;;;23.09;86.06;98430.84;4740458;29;20060;-61
2023/05/02 10:15:04;;;;;;;26.17;19.40;;;;;;;23.03;86.03;98418.44;4755683;29;20043;-63
2023/05/02 10:17:42;;;;;;;25.17;20.58;;;;;;;22.96;86.80;98420.66;4746700;30;20083;-69
2023/05/02 10:20:18;;;;;;;28.50;21.30;;;;;;;22.90;87.74;98415.56;4748544;29;20060;-65
2023/05/02 10:22:50;;;;;;;32.67;20.42;;;;;;;22.76;86.65;98412.66;4762885;29;20055;-65
2023/05/02 10:25:20;;;;;;;33.33;22.08;;;;;;;22.89;88.49;98420.13;4754936;29;20071;-65
2023/05/02 10:27:49;;;;;;;26.88;19.80;;;;;;;22.88;87.72;98415.81;4755823;29;20583;-66
2023/05/02 10:30:19;;;;;;;25.92;19.25;;;;;;;22.84;87.79;98414.75;4756685;29;20056;-66
2023/05/02 10:32:55;;;;;;;25.30;18.52;;;;;;;22.79;86.90;98409.41;4761001;30;20063;-67
2023/05/02 10:35:25;;;;;;;22.58;16.95;;;;;;;23.01;87.36;98390.91;4752829;30;20113;-64
2023/05/02 10:37:56;;;;;;;20.77;16.58;;;;;;;23.03;86.31;98383.31;4745936;30;20071;-65
2023/05/02 10:40:26;;;;;;;21.23;15.63;;;;;;;23.02;83.48;98384.41;4745702;29;20056;-65
2023/05/02 10:42:56;;;;;;;16.58;14.13;;;;;;;23.20;85.08;98397.25;4757062;30;20873;-64
2023/05/02 10:45:36;;;;;;;17.13;13.35;;;;;;;23.20;82.72;98385.63;4751385;30;20142;-62
2023/05/02 10:48:25;;;;;;;14.18;12.57;;;;;;;23.27;83.61;98388.84;4759481;30;20754;-66
2023/05/02 10:51:02;;;;;;;12.35;11.13;;;;;;;23.48;83.10;98394.91;4746441;29;20056;-65
2023/05/02 10:53:42;;;;;;;16.75;10.85;;;;;;;23.56;82.86;98400.50;4759862;30;20373;-66
2023/05/02 10:56:22;;;;;;;11.45;10.25;;;;;;;23.56;82.77;98408.63;4751511;30;20476;-64
2023/05/02 10:59:40;;;;;;;11.63;9.60;;;;;;;23.52;82.29;98409.47;4754442;29;20059;-65
2023/05/02 11:02:22;;;;;;;14.10;8.10;;;;;;;23.50;80.48;98417.06;4762461;30;20125;-65
2023/05/02 11:05:03;;;;;;;9.75;7.30;;;;;;;23.51;80.19;98418.66;4749071;29;20132;-65
2023/05/02 11:07:36;;;;;;;9.10;7.47;;;;;;;23.52;79.78;98420.28;4750060;29;20063;-62
2023/05/02 11:10:20;;;;;;;8.13;7.03;;;;;;;23.39;79.08;98429.81;4743864;29;20133;-62
2023/05/02 11:12:53;;;;;;;14.23;7.18;;;;;;;23.25;79.29;98420.72;4747471;30;20052;-65
2023/05/02 11:15:28;;;;;;;;;;;;;;;23.23;78.00;98418.28;4758243;29;20631;-67
2023/05/02 11:18:10;;;;;;;7.35;6.55;;;;;;;23.31;79.20;98408.00;4746864;29;20387;-68
2023/05/02 11:20:44;;;;;;;9.32;6.93;;;;;;;23.41;77.90;98408.69;4745206;30;20590;-64
2023/05/02 11:23:14;;;;;;;10.85;7.38;;;;;;;23.49;78.27;98397.34;4749519;30;20052;-65
2023/05/02 11:25:46;;;;;;;10.15;7.65;;;;;;;23.44;77.36;98397.38;4755252;30;20432;-67
2023/05/02 11:28:33;;;;;;;10.13;7.35;;;;;;;23.70;78.62;98387.13;4756182;29;20361;-67
2023/05/02 11:31:07;;;;;;;14.95;9.23;;;;;;;23.58;79.09;98402.94;4758644;29;20039;-69
2023/05/02 11:33:37;;;;;;;11.55;9.50;;;;;;;23.02;79.02;98387.09;4753047;30;20054;-66
2023/05/02 11:36:07;;;;;;;16.00;10.85;;;;;;;22.75;79.70;98392.94;4756287;30;20076;-64
2023/05/02 11:38:38;;;;;;;14.82;10.65;;;;;;;22.71;81.31;98399.19;4761901;30;20059;-64
2023/05/02 11:41:07;;;;;;;13.00;11.43;;;;;;;22.60;81.24;98400.28;4756725;29;20066;-70
2023/05/02 11:43:36;;;;;;;12.95;10.45;;;;;;;22.34;80.86;98411.22;4755277;29;20811;-67
2023/05/02 11:46:06;;;;;;;14.13;11.82;;;;;;;22.49;81.84;98407.63;4747951;29;20060;-65